sensor_id;sensor_type;location;lat;lon;timestamp;temperature;humidity
43808;DHT22;29438;50.664;10.098;2024-02-15T00:01:33;9.00;95.30
43808;DHT22;29438;50.664;10.098;2024-02-15T00:03:59;9.10;95.30
43808;DHT22;29438;50.664;10.098;2024-02-15T00:06:24;9.10;95.30
43808;DHT22;29438;50.664;10.098;2024-02-15T00:08:50;9.10;95.30
43808;DHT22;29438;50.664;10.098;2024-02-15T00:11:17;9.10;95.30
43808;DHT22;29438;50.664;10.098;2024-02-15T00:13:43;9.10;95.30
43808;DHT22;29438;50.664;10.098;2024-02-15T00:16:13;9.10;95.20
43808;DHT22;29438;50.664;10.098;2024-02-15T00:18:39;9.10;95.30
43808;DHT22;29438;50.664;10.098;2024-02-15T00:21:05;9.10;95.30
43808;DHT22;29438;50.664;10.098;2024-02-15T00:23:30;9.10;95.30
43808;DHT22;29438;50.664;10.098;2024-02-15T00:25:57;9.10;95.30
43808;DHT22;29438;50.664;10.098;2024-02-15T00:28:23;9.10;95.30
43808;DHT22;29438;50.664;10.098;2024-02-15T00:30:49;9.10;95.30
43808;DHT22;29438;50.664;10.098;2024-02-15T00:33:15;9.10;95.30
43808;DHT22;29438;50.664;10.098;2024-02-15T00:35:41;9.10;95.20
43808;DHT22;29438;50.664;10.098;2024-02-15T00:38:06;9.10;95.20
43808;DHT22;29438;50.664;10.098;2024-02-15T00:40:32;9.20;95.20
43808;DHT22;29438;50.664;10.098;2024-02-15T00:42:58;9.20;95.20
43808;DHT22;29438;50.664;10.098;2024-02-15T00:45:23;9.20;95.20
43808;DHT22;29438;50.664;10.098;2024-02-15T00:47:49;9.20;95.10
43808;DHT22;29438;50.664;10.098;2024-02-15T00:50:15;9.20;95.10
43808;DHT22;29438;50.664;10.098;2024-02-15T00:52:40;9.20;95.10
43808;DHT22;29438;50.664;10.098;2024-02-15T00:55:06;9.20;95.10
43808;DHT22;29438;50.664;10.098;2024-02-15T00:57:31;9.20;95.10
43808;DHT22;29438;50.664;10.098;2024-02-15T00:59:57;9.20;95.10
43808;DHT22;29438;50.664;10.098;2024-02-15T01:02:22;9.20;95.10
43808;DHT22;29438;50.664;10.098;2024-02-15T01:04:49;9.20;95.10
43808;DHT22;29438;50.664;10.098;2024-02-15T01:07:15;9.20;95.00
43808;DHT22;29438;50.664;10.098;2024-02-15T01:09:41;9.20;95.00
43808;DHT22;29438;50.664;10.098;2024-02-15T01:12:06;9.20;95.00
43808;DHT22;29438;50.664;10.098;2024-02-15T01:14:32;9.20;95.00
43808;DHT22;29438;50.664;10.098;2024-02-15T01:16:58;9.20;95.00
43808;DHT22;29438;50.664;10.098;2024-02-15T01:19:23;9.20;94.90
43808;DHT22;29438;50.664;10.098;2024-02-15T01:21:49;9.20;95.00
43808;DHT22;29438;50.664;10.098;2024-02-15T01:24:14;9.20;94.90
43808;DHT22;29438;50.664;10.098;2024-02-15T01:26:40;9.20;94.90
43808;DHT22;29438;50.664;10.098;2024-02-15T01:29:05;9.30;94.90
43808;DHT22;29438;50.664;10.098;2024-02-15T01:31:31;9.30;94.80
43808;DHT22;29438;50.664;10.098;2024-02-15T01:33:56;9.30;94.80
43808;DHT22;29438;50.664;10.098;2024-02-15T01:36:22;9.30;94.80
43808;DHT22;29438;50.664;10.098;2024-02-15T01:38:48;9.20;94.90
43808;DHT22;29438;50.664;10.098;2024-02-15T01:41:13;9.30;94.90
43808;DHT22;29438;50.664;10.098;2024-02-15T01:43:43;9.30;94.90
43808;DHT22;29438;50.664;10.098;2024-02-15T01:46:10;9.20;94.90
43808;DHT22;29438;50.664;10.098;2024-02-15T01:48:37;9.30;94.80
43808;DHT22;29438;50.664;10.098;2024-02-15T01:51:03;9.30;94.80
43808;DHT22;29438;50.664;10.098;2024-02-15T01:53:29;9.30;94.80
43808;DHT22;29438;50.664;10.098;2024-02-15T01:55:56;9.30;94.80
43808;DHT22;29438;50.664;10.098;2024-02-15T01:58:24;9.30;94.80
43808;DHT22;29438;50.664;10.098;2024-02-15T02:00:50;9.30;94.80
43808;DHT22;29438;50.664;10.098;2024-02-15T02:03:16;9.30;94.90
43808;DHT22;29438;50.664;10.098;2024-02-15T02:05:42;9.30;94.80
43808;DHT22;29438;50.664;10.098;2024-02-15T02:08:08;9.30;94.80
43808;DHT22;29438;50.664;10.098;2024-02-15T02:10:37;9.30;94.80
43808;DHT22;29438;50.664;10.098;2024-02-15T02:13:03;9.30;94.80
43808;DHT22;29438;50.664;10.098;2024-02-15T02:15:28;9.30;94.80
43808;DHT22;29438;50.664;10.098;2024-02-15T02:17:57;9.20;94.80
43808;DHT22;29438;50.664;10.098;2024-02-15T02:20:25;9.20;94.70
43808;DHT22;29438;50.664;10.098;2024-02-15T02:22:58;9.30;94.70
43808;DHT22;29438;50.664;10.098;2024-02-15T02:25:32;9.20;94.70
43808;DHT22;29438;50.664;10.098;2024-02-15T02:27:58;9.30;94.70
43808;DHT22;29438;50.664;10.098;2024-02-15T02:30:24;9.30;94.70
43808;DHT22;29438;50.664;10.098;2024-02-15T02:32:55;9.30;94.60
43808;DHT22;29438;50.664;10.098;2024-02-15T02:35:20;9.30;94.60
43808;DHT22;29438;50.664;10.098;2024-02-15T02:37:46;9.30;94.60
43808;DHT22;29438;50.664;10.098;2024-02-15T02:40:11;9.30;94.60
43808;DHT22;29438;50.664;10.098;2024-02-15T02:42:54;9.30;94.60
43808;DHT22;29438;50.664;10.098;2024-02-15T02:45:22;9.30;94.50
43808;DHT22;29438;50.664;10.098;2024-02-15T02:47:51;9.30;94.50
43808;DHT22;29438;50.664;10.098;2024-02-15T02:50:17;9.30;94.50
43808;DHT22;29438;50.664;10.098;2024-02-15T02:52:43;9.30;94.60
43808;DHT22;29438;50.664;10.098;2024-02-15T02:55:09;9.30;94.50
43808;DHT22;29438;50.664;10.098;2024-02-15T02:57:36;9.30;94.50
43808;DHT22;29438;50.664;10.098;2024-02-15T03:00:06;9.30;94.50
43808;DHT22;29438;50.664;10.098;2024-02-15T03:02:38;9.30;94.60
43808;DHT22;29438;50.664;10.098;2024-02-15T03:05:05;9.30;94.60
43808;DHT22;29438;50.664;10.098;2024-02-15T03:07:35;9.20;94.60
43808;DHT22;29438;50.664;10.098;2024-02-15T03:10:01;9.30;94.60
43808;DHT22;29438;50.664;10.098;2024-02-15T03:12:29;9.30;94.60
43808;DHT22;29438;50.664;10.098;2024-02-15T03:14:55;9.20;94.70
43808;DHT22;29438;50.664;10.098;2024-02-15T03:17:22;9.20;94.70
43808;DHT22;29438;50.664;10.098;2024-02-15T03:19:47;9.20;94.80
43808;DHT22;29438;50.664;10.098;2024-02-15T03:22:14;9.20;94.80
43808;DHT22;29438;50.664;10.098;2024-02-15T03:24:39;9.30;94.80
43808;DHT22;29438;50.664;10.098;2024-02-15T03:27:05;9.20;94.80
43808;DHT22;29438;50.664;10.098;2024-02-15T03:29:30;9.20;94.80
43808;DHT22;29438;50.664;10.098;2024-02-15T03:31:56;9.20;94.90
43808;DHT22;29438;50.664;10.098;2024-02-15T03:34:21;9.20;94.90
43808;DHT22;29438;50.664;10.098;2024-02-15T03:36:49;9.20;95.00
43808;DHT22;29438;50.664;10.098;2024-02-15T03:39:19;9.20;95.00
43808;DHT22;29438;50.664;10.098;2024-02-15T03:41:44;9.20;95.10
43808;DHT22;29438;50.664;10.098;2024-02-15T03:44:12;9.10;95.00
43808;DHT22;29438;50.664;10.098;2024-02-15T03:46:37;9.00;95.10
43808;DHT22;29438;50.664;10.098;2024-02-15T03:49:03;9.10;95.20
43808;DHT22;29438;50.664;10.098;2024-02-15T03:51:28;9.10;95.20
43808;DHT22;29438;50.664;10.098;2024-02-15T03:53:54;9.10;95.30
43808;DHT22;29438;50.664;10.098;2024-02-15T03:56:20;9.10;95.40
43808;DHT22;29438;50.664;10.098;2024-02-15T03:58:48;9.10;95.40
43808;DHT22;29438;50.664;10.098;2024-02-15T04:01:15;9.10;95.50
43808;DHT22;29438;50.664;10.098;2024-02-15T04:03:41;9.20;95.50
43808;DHT22;29438;50.664;10.098;2024-02-15T04:06:06;9.10;95.40
43808;DHT22;29438;50.664;10.098;2024-02-15T04:08:32;9.00;95.30
43808;DHT22;29438;50.664;10.098;2024-02-15T04:10:59;9.20;95.40
43808;DHT22;29438;50.664;10.098;2024-02-15T04:13:24;9.20;95.30
43808;DHT22;29438;50.664;10.098;2024-02-15T04:15:50;9.20;95.40
43808;DHT22;29438;50.664;10.098;2024-02-15T04:18:18;9.20;95.40
43808;DHT22;29438;50.664;10.098;2024-02-15T04:20:44;9.10;95.40
43808;DHT22;29438;50.664;10.098;2024-02-15T04:23:12;9.20;95.40
43808;DHT22;29438;50.664;10.098;2024-02-15T04:25:38;9.10;95.40
43808;DHT22;29438;50.664;10.098;2024-02-15T04:28:04;9.20;95.40
43808;DHT22;29438;50.664;10.098;2024-02-15T04:30:30;9.20;95.40
43808;DHT22;29438;50.664;10.098;2024-02-15T04:32:56;9.20;95.40
43808;DHT22;29438;50.664;10.098;2024-02-15T04:35:22;9.10;95.40
43808;DHT22;29438;50.664;10.098;2024-02-15T04:37:47;9.10;95.40
43808;DHT22;29438;50.664;10.098;2024-02-15T04:40:14;9.10;95.40
43808;DHT22;29438;50.664;10.098;2024-02-15T04:42:40;9.10;95.40
43808;DHT22;29438;50.664;10.098;2024-02-15T04:45:09;9.10;95.50
43808;DHT22;29438;50.664;10.098;2024-02-15T04:47:36;9.10;95.50
43808;DHT22;29438;50.664;10.098;2024-02-15T04:50:02;9.00;95.50
43808;DHT22;29438;50.664;10.098;2024-02-15T04:52:29;9.10;95.50
43808;DHT22;29438;50.664;10.098;2024-02-15T04:54:55;9.00;95.60
43808;DHT22;29438;50.664;10.098;2024-02-15T04:57:20;9.00;95.60
43808;DHT22;29438;50.664;10.098;2024-02-15T04:59:47;9.00;95.70
43808;DHT22;29438;50.664;10.098;2024-02-15T05:02:14;9.10;95.70
43808;DHT22;29438;50.664;10.098;2024-02-15T05:04:39;9.10;95.70
43808;DHT22;29438;50.664;10.098;2024-02-15T05:07:08;9.10;95.70
43808;DHT22;29438;50.664;10.098;2024-02-15T05:09:34;9.10;95.70
43808;DHT22;29438;50.664;10.098;2024-02-15T05:12:00;9.10;95.80
43808;DHT22;29438;50.664;10.098;2024-02-15T05:14:30;9.10;95.80
43808;DHT22;29438;50.664;10.098;2024-02-15T05:16:56;9.20;95.80
43808;DHT22;29438;50.664;10.098;2024-02-15T05:19:21;9.20;95.80
43808;DHT22;29438;50.664;10.098;2024-02-15T05:21:47;9.10;95.80
43808;DHT22;29438;50.664;10.098;2024-02-15T05:24:14;9.20;95.80
43808;DHT22;29438;50.664;10.098;2024-02-15T05:26:45;9.20;95.70
43808;DHT22;29438;50.664;10.098;2024-02-15T05:29:17;9.20;95.70
43808;DHT22;29438;50.664;10.098;2024-02-15T05:31:43;9.10;95.70
43808;DHT22;29438;50.664;10.098;2024-02-15T05:34:10;9.20;95.70
43808;DHT22;29438;50.664;10.098;2024-02-15T05:36:39;9.10;95.60
43808;DHT22;29438;50.664;10.098;2024-02-15T05:39:05;9.00;95.50
43808;DHT22;29438;50.664;10.098;2024-02-15T05:41:31;9.00;95.60
43808;DHT22;29438;50.664;10.098;2024-02-15T05:44:00;9.00;95.60
43808;DHT22;29438;50.664;10.098;2024-02-15T05:46:25;8.90;95.70
43808;DHT22;29438;50.664;10.098;2024-02-15T05:48:53;8.90;95.70
43808;DHT22;29438;50.664;10.098;2024-02-15T05:51:19;9.00;95.90
43808;DHT22;29438;50.664;10.098;2024-02-15T05:53:44;9.00;95.80
43808;DHT22;29438;50.664;10.098;2024-02-15T05:56:10;8.90;95.80
43808;DHT22;29438;50.664;10.098;2024-02-15T05:58:36;8.90;95.90
43808;DHT22;29438;50.664;10.098;2024-02-15T06:01:03;8.80;95.70
43808;DHT22;29438;50.664;10.098;2024-02-15T06:03:33;8.70;95.70
43808;DHT22;29438;50.664;10.098;2024-02-15T06:06:02;8.70;95.80
43808;DHT22;29438;50.664;10.098;2024-02-15T06:08:35;8.70;95.90
43808;DHT22;29438;50.664;10.098;2024-02-15T06:11:01;8.70;96.00
43808;DHT22;29438;50.664;10.098;2024-02-15T06:13:27;8.70;95.90
43808;DHT22;29438;50.664;10.098;2024-02-15T06:15:53;8.60;95.90
43808;DHT22;29438;50.664;10.098;2024-02-15T06:18:19;8.60;96.00
43808;DHT22;29438;50.664;10.098;2024-02-15T06:20:47;8.60;96.00
43808;DHT22;29438;50.664;10.098;2024-02-15T06:23:15;8.60;96.10
43808;DHT22;29438;50.664;10.098;2024-02-15T06:25:41;8.60;96.10
43808;DHT22;29438;50.664;10.098;2024-02-15T06:28:06;8.60;96.10
43808;DHT22;29438;50.664;10.098;2024-02-15T06:30:42;8.60;96.20
43808;DHT22;29438;50.664;10.098;2024-02-15T06:33:26;8.50;96.10
43808;DHT22;29438;50.664;10.098;2024-02-15T06:36:09;8.50;96.10
43808;DHT22;29438;50.664;10.098;2024-02-15T06:38:58;8.70;96.30
43808;DHT22;29438;50.664;10.098;2024-02-15T06:41:42;8.70;96.30
43808;DHT22;29438;50.664;10.098;2024-02-15T06:44:08;8.80;96.30
43808;DHT22;29438;50.664;10.098;2024-02-15T06:46:34;8.90;96.30
43808;DHT22;29438;50.664;10.098;2024-02-15T06:49:00;8.80;96.30
43808;DHT22;29438;50.664;10.098;2024-02-15T06:51:26;8.80;96.30
43808;DHT22;29438;50.664;10.098;2024-02-15T06:53:51;8.80;96.30
43808;DHT22;29438;50.664;10.098;2024-02-15T06:56:20;8.80;96.40
43808;DHT22;29438;50.664;10.098;2024-02-15T06:58:46;8.80;96.40
43808;DHT22;29438;50.664;10.098;2024-02-15T07:01:13;8.90;96.40
43808;DHT22;29438;50.664;10.098;2024-02-15T07:03:44;8.80;96.40
43808;DHT22;29438;50.664;10.098;2024-02-15T07:06:11;8.90;96.40
43808;DHT22;29438;50.664;10.098;2024-02-15T07:08:39;8.90;96.40
43808;DHT22;29438;50.664;10.098;2024-02-15T07:11:06;9.00;96.40
43808;DHT22;29438;50.664;10.098;2024-02-15T07:13:35;9.00;96.40
43808;DHT22;29438;50.664;10.098;2024-02-15T07:16:01;9.10;96.40
43808;DHT22;29438;50.664;10.098;2024-02-15T07:18:27;9.10;96.40
43808;DHT22;29438;50.664;10.098;2024-02-15T07:20:52;9.20;96.50
43808;DHT22;29438;50.664;10.098;2024-02-15T07:23:18;9.20;96.50
43808;DHT22;29438;50.664;10.098;2024-02-15T07:25:43;9.20;96.50
43808;DHT22;29438;50.664;10.098;2024-02-15T07:28:12;9.30;96.50
43808;DHT22;29438;50.664;10.098;2024-02-15T07:30:37;9.40;96.50
43808;DHT22;29438;50.664;10.098;2024-02-15T07:33:03;9.50;96.40
43808;DHT22;29438;50.664;10.098;2024-02-15T07:35:29;9.60;96.40
43808;DHT22;29438;50.664;10.098;2024-02-15T07:37:55;9.70;96.40
43808;DHT22;29438;50.664;10.098;2024-02-15T07:40:23;9.80;96.40
43808;DHT22;29438;50.664;10.098;2024-02-15T07:42:53;10.00;96.40
43808;DHT22;29438;50.664;10.098;2024-02-15T07:45:18;10.00;96.20
43808;DHT22;29438;50.664;10.098;2024-02-15T07:47:44;10.20;96.10
43808;DHT22;29438;50.664;10.098;2024-02-15T07:50:10;10.20;95.90
43808;DHT22;29438;50.664;10.098;2024-02-15T07:52:36;10.30;95.70
43808;DHT22;29438;50.664;10.098;2024-02-15T07:55:01;10.40;95.50
43808;DHT22;29438;50.664;10.098;2024-02-15T07:57:34;10.50;95.40
43808;DHT22;29438;50.664;10.098;2024-02-15T08:00:00;10.50;95.00
43808;DHT22;29438;50.664;10.098;2024-02-15T08:02:25;10.60;94.30
43808;DHT22;29438;50.664;10.098;2024-02-15T08:04:53;10.80;94.30
43808;DHT22;29438;50.664;10.098;2024-02-15T08:07:19;10.80;93.90
43808;DHT22;29438;50.664;10.098;2024-02-15T08:09:46;11.00;93.50
43808;DHT22;29438;50.664;10.098;2024-02-15T08:12:12;11.20;93.10
43808;DHT22;29438;50.664;10.098;2024-02-15T08:14:37;11.30;92.80
43808;DHT22;29438;50.664;10.098;2024-02-15T08:17:05;11.30;92.00
43808;DHT22;29438;50.664;10.098;2024-02-15T08:19:33;11.30;91.50
43808;DHT22;29438;50.664;10.098;2024-02-15T08:22:04;11.20;91.40
43808;DHT22;29438;50.664;10.098;2024-02-15T08:24:30;11.20;91.30
43808;DHT22;29438;50.664;10.098;2024-02-15T08:26:56;11.20;91.20
43808;DHT22;29438;50.664;10.098;2024-02-15T08:29:24;11.30;91.20
43808;DHT22;29438;50.664;10.098;2024-02-15T08:31:49;11.50;90.40
43808;DHT22;29438;50.664;10.098;2024-02-15T08:34:15;11.60;90.20
43808;DHT22;29438;50.664;10.098;2024-02-15T08:36:44;11.80;90.00
43808;DHT22;29438;50.664;10.098;2024-02-15T08:39:09;12.00;89.70
43808;DHT22;29438;50.664;10.098;2024-02-15T08:41:37;11.90;89.00
43808;DHT22;29438;50.664;10.098;2024-02-15T08:44:04;11.80;89.10
43808;DHT22;29438;50.664;10.098;2024-02-15T08:46:34;12.00;89.10
43808;DHT22;29438;50.664;10.098;2024-02-15T08:49:01;12.00;88.40
43808;DHT22;29438;50.664;10.098;2024-02-15T08:51:28;12.00;88.10
43808;DHT22;29438;50.664;10.098;2024-02-15T08:53:55;12.00;87.80
43808;DHT22;29438;50.664;10.098;2024-02-15T08:56:21;12.10;87.80
43808;DHT22;29438;50.664;10.098;2024-02-15T08:58:48;12.20;87.70
43808;DHT22;29438;50.664;10.098;2024-02-15T09:01:14;12.30;88.00
43808;DHT22;29438;50.664;10.098;2024-02-15T09:03:39;12.40;88.30
43808;DHT22;29438;50.664;10.098;2024-02-15T09:06:05;12.60;87.30
43808;DHT22;29438;50.664;10.098;2024-02-15T09:08:33;12.80;86.90
43808;DHT22;29438;50.664;10.098;2024-02-15T09:10:58;12.80;85.90
43808;DHT22;29438;50.664;10.098;2024-02-15T09:13:24;12.50;86.60
43808;DHT22;29438;50.664;10.098;2024-02-15T09:15:49;12.60;86.80
43808;DHT22;29438;50.664;10.098;2024-02-15T09:18:15;12.30;87.00
43808;DHT22;29438;50.664;10.098;2024-02-15T09:20:43;12.30;87.50
43808;DHT22;29438;50.664;10.098;2024-02-15T09:23:10;12.30;87.60
43808;DHT22;29438;50.664;10.098;2024-02-15T09:25:40;12.50;87.50
43808;DHT22;29438;50.664;10.098;2024-02-15T09:28:09;12.50;86.90
43808;DHT22;29438;50.664;10.098;2024-02-15T09:30:35;12.50;86.40
43808;DHT22;29438;50.664;10.098;2024-02-15T09:33:01;12.60;86.70
43808;DHT22;29438;50.664;10.098;2024-02-15T09:35:30;12.70;87.00
43808;DHT22;29438;50.664;10.098;2024-02-15T09:37:55;12.60;86.20
43808;DHT22;29438;50.664;10.098;2024-02-15T09:40:21;12.40;86.90
43808;DHT22;29438;50.664;10.098;2024-02-15T09:42:52;12.40;87.70
43808;DHT22;29438;50.664;10.098;2024-02-15T09:45:18;12.40;87.30
43808;DHT22;29438;50.664;10.098;2024-02-15T09:47:46;12.40;87.00
43808;DHT22;29438;50.664;10.098;2024-02-15T09:50:14;12.30;87.70
43808;DHT22;29438;50.664;10.098;2024-02-15T09:52:44;12.30;87.60
43808;DHT22;29438;50.664;10.098;2024-02-15T09:55:10;12.30;87.30
43808;DHT22;29438;50.664;10.098;2024-02-15T09:57:38;12.20;88.30
43808;DHT22;29438;50.664;10.098;2024-02-15T10:00:05;12.10;88.10
43808;DHT22;29438;50.664;10.098;2024-02-15T10:02:34;12.20;88.20
43808;DHT22;29438;50.664;10.098;2024-02-15T10:05:02;11.70;88.30
43808;DHT22;29438;50.664;10.098;2024-02-15T10:07:27;11.80;88.60
43808;DHT22;29438;50.664;10.098;2024-02-15T10:09:54;12.00;88.40
43808;DHT22;29438;50.664;10.098;2024-02-15T10:12:19;12.00;88.20
43808;DHT22;29438;50.664;10.098;2024-02-15T10:14:49;12.00;89.00
43808;DHT22;29438;50.664;10.098;2024-02-15T10:17:19;12.20;88.20
43808;DHT22;29438;50.664;10.098;2024-02-15T10:19:45;12.30;88.60
43808;DHT22;29438;50.664;10.098;2024-02-15T10:22:27;12.20;88.00
43808;DHT22;29438;50.664;10.098;2024-02-15T10:25:09;12.20;87.80
43808;DHT22;29438;50.664;10.098;2024-02-15T10:27:35;12.30;87.30
43808;DHT22;29438;50.664;10.098;2024-02-15T10:30:14;12.70;86.80
43808;DHT22;29438;50.664;10.098;2024-02-15T10:32:41;12.90;86.70
43808;DHT22;29438;50.664;10.098;2024-02-15T10:35:07;13.10;85.50
43808;DHT22;29438;50.664;10.098;2024-02-15T10:37:32;13.70;85.70
43808;DHT22;29438;50.664;10.098;2024-02-15T10:40:05;14.10;84.40
43808;DHT22;29438;50.664;10.098;2024-02-15T10:42:35;14.90;82.10
43808;DHT22;29438;50.664;10.098;2024-02-15T10:45:05;15.20;80.10
43808;DHT22;29438;50.664;10.098;2024-02-15T10:47:34;14.80;79.80
43808;DHT22;29438;50.664;10.098;2024-02-15T10:50:02;14.50;80.80
43808;DHT22;29438;50.664;10.098;2024-02-15T10:52:31;13.70;81.90
43808;DHT22;29438;50.664;10.098;2024-02-15T10:55:03;13.20;83.50
43808;DHT22;29438;50.664;10.098;2024-02-15T10:57:31;12.80;85.10
43808;DHT22;29438;50.664;10.098;2024-02-15T10:59:59;13.00;85.20
43808;DHT22;29438;50.664;10.098;2024-02-15T11:02:37;12.90;85.40
43808;DHT22;29438;50.664;10.098;2024-02-15T11:05:06;13.20;85.90
43808;DHT22;29438;50.664;10.098;2024-02-15T11:07:36;13.20;85.40
43808;DHT22;29438;50.664;10.098;2024-02-15T11:10:11;13.30;84.90
43808;DHT22;29438;50.664;10.098;2024-02-15T11:12:42;13.50;84.40
43808;DHT22;29438;50.664;10.098;2024-02-15T11:15:09;13.50;84.80
43808;DHT22;29438;50.664;10.098;2024-02-15T11:20:09;13.10;85.70
43808;DHT22;29438;50.664;10.098;2024-02-15T11:22:37;13.00;85.90
43808;DHT22;29438;50.664;10.098;2024-02-15T11:25:04;12.70;86.50
43808;DHT22;29438;50.664;10.098;2024-02-15T11:27:37;12.80;86.30
43808;DHT22;29438;50.664;10.098;2024-02-15T11:30:05;12.50;87.10
43808;DHT22;29438;50.664;10.098;2024-02-15T11:32:49;12.50;87.00
43808;DHT22;29438;50.664;10.098;2024-02-15T11:35:26;12.30;87.40
43808;DHT22;29438;50.664;10.098;2024-02-15T11:37:57;12.20;88.20
43808;DHT22;29438;50.664;10.098;2024-02-15T11:46:12;12.00;89.20
43808;DHT22;29438;50.664;10.098;2024-02-15T11:48:41;12.20;88.60
43808;DHT22;29438;50.664;10.098;2024-02-15T11:51:07;12.40;88.30
43808;DHT22;29438;50.664;10.098;2024-02-15T11:53:36;12.40;87.30
43808;DHT22;29438;50.664;10.098;2024-02-15T11:56:03;12.30;87.60
43808;DHT22;29438;50.664;10.098;2024-02-15T11:58:30;12.50;87.10
43808;DHT22;29438;50.664;10.098;2024-02-15T12:01:17;12.50;86.70
43808;DHT22;29438;50.664;10.098;2024-02-15T12:04:01;12.60;86.90
43808;DHT22;29438;50.664;10.098;2024-02-15T12:06:46;12.70;86.20
43808;DHT22;29438;50.664;10.098;2024-02-15T12:09:30;12.70;85.90
43808;DHT22;29438;50.664;10.098;2024-02-15T12:12:14;12.70;85.90
43808;DHT22;29438;50.664;10.098;2024-02-15T12:15:02;12.70;86.00
43808;DHT22;29438;50.664;10.098;2024-02-15T12:17:46;12.80;85.50
43808;DHT22;29438;50.664;10.098;2024-02-15T12:20:30;12.70;85.30
43808;DHT22;29438;50.664;10.098;2024-02-15T12:22:57;12.90;85.50
43808;DHT22;29438;50.664;10.098;2024-02-15T12:25:23;13.10;86.50
43808;DHT22;29438;50.664;10.098;2024-02-15T12:27:58;13.10;85.60
43808;DHT22;29438;50.664;10.098;2024-02-15T12:30:24;12.80;86.40
43808;DHT22;29438;50.664;10.098;2024-02-15T12:32:52;12.90;86.60
43808;DHT22;29438;50.664;10.098;2024-02-15T12:35:23;12.70;86.90
43808;DHT22;29438;50.664;10.098;2024-02-15T12:40:39;12.70;87.20
43808;DHT22;29438;50.664;10.098;2024-02-15T12:43:06;13.00;87.60
43808;DHT22;29438;50.664;10.098;2024-02-15T12:45:36;13.40;86.10
43808;DHT22;29438;50.664;10.098;2024-02-15T12:48:03;13.30;85.50
43808;DHT22;29438;50.664;10.098;2024-02-15T12:50:30;13.20;85.80
43808;DHT22;29438;50.664;10.098;2024-02-15T12:52:56;13.20;86.20
43808;DHT22;29438;50.664;10.098;2024-02-15T12:55:28;13.20;86.10
43808;DHT22;29438;50.664;10.098;2024-02-15T12:57:55;13.20;85.60
43808;DHT22;29438;50.664;10.098;2024-02-15T13:00:24;12.90;86.60
43808;DHT22;29438;50.664;10.098;2024-02-15T13:02:54;12.90;86.30
43808;DHT22;29438;50.664;10.098;2024-02-15T13:05:21;12.90;86.50
43808;DHT22;29438;50.664;10.098;2024-02-15T13:07:48;13.00;86.30
43808;DHT22;29438;50.664;10.098;2024-02-15T13:10:13;13.20;86.30
43808;DHT22;29438;50.664;10.098;2024-02-15T13:12:41;13.30;86.30
43808;DHT22;29438;50.664;10.098;2024-02-15T13:15:07;13.30;85.70
43808;DHT22;29438;50.664;10.098;2024-02-15T13:17:37;13.50;85.60
43808;DHT22;29438;50.664;10.098;2024-02-15T13:20:03;13.50;85.10
43808;DHT22;29438;50.664;10.098;2024-02-15T13:22:36;13.30;84.90
43808;DHT22;29438;50.664;10.098;2024-02-15T13:25:07;13.30;85.00
43808;DHT22;29438;50.664;10.098;2024-02-15T13:27:35;13.10;85.40
43808;DHT22;29438;50.664;10.098;2024-02-15T13:30:06;13.00;86.20
43808;DHT22;29438;50.664;10.098;2024-02-15T13:32:39;12.80;86.90
43808;DHT22;29438;50.664;10.098;2024-02-15T13:35:07;12.90;87.40
43808;DHT22;29438;50.664;10.098;2024-02-15T13:37:40;12.80;86.90
43808;DHT22;29438;50.664;10.098;2024-02-15T13:40:06;12.60;87.40
43808;DHT22;29438;50.664;10.098;2024-02-15T13:42:43;12.30;87.70
43808;DHT22;29438;50.664;10.098;2024-02-15T13:47:48;12.20;88.20
43808;DHT22;29438;50.664;10.098;2024-02-15T13:50:14;12.20;88.20
43808;DHT22;29438;50.664;10.098;2024-02-15T13:52:46;12.20;88.20
43808;DHT22;29438;50.664;10.098;2024-02-15T13:55:15;12.20;88.30
43808;DHT22;29438;50.664;10.098;2024-02-15T13:57:42;12.30;88.10
43808;DHT22;29438;50.664;10.098;2024-02-15T14:00:13;12.40;87.80
43808;DHT22;29438;50.664;10.098;2024-02-15T14:02:42;12.70;87.50
43808;DHT22;29438;50.664;10.098;2024-02-15T14:05:09;12.70;87.10
43808;DHT22;29438;50.664;10.098;2024-02-15T14:07:38;12.70;86.90
43808;DHT22;29438;50.664;10.098;2024-02-15T14:10:07;12.90;86.20
43808;DHT22;29438;50.664;10.098;2024-02-15T14:12:33;13.10;85.60
43808;DHT22;29438;50.664;10.098;2024-02-15T14:15:00;13.20;85.20
43808;DHT22;29438;50.664;10.098;2024-02-15T14:17:25;13.10;85.60
43808;DHT22;29438;50.664;10.098;2024-02-15T14:19:51;13.00;85.70
43808;DHT22;29438;50.664;10.098;2024-02-15T14:22:16;13.10;85.60
43808;DHT22;29438;50.664;10.098;2024-02-15T14:24:42;13.10;85.90
43808;DHT22;29438;50.664;10.098;2024-02-15T14:27:09;12.80;86.40
43808;DHT22;29438;50.664;10.098;2024-02-15T14:29:35;12.80;86.30
43808;DHT22;29438;50.664;10.098;2024-02-15T14:32:06;12.80;87.00
43808;DHT22;29438;50.664;10.098;2024-02-15T14:34:50;12.70;87.20
43808;DHT22;29438;50.664;10.098;2024-02-15T14:37:16;12.80;86.30
43808;DHT22;29438;50.664;10.098;2024-02-15T14:39:42;12.80;85.70
43808;DHT22;29438;50.664;10.098;2024-02-15T14:42:08;12.90;86.00
43808;DHT22;29438;50.664;10.098;2024-02-15T14:44:33;12.80;85.50
43808;DHT22;29438;50.664;10.098;2024-02-15T14:46:59;12.80;85.60
43808;DHT22;29438;50.664;10.098;2024-02-15T14:49:25;12.70;85.70
43808;DHT22;29438;50.664;10.098;2024-02-15T14:51:50;12.50;85.90
43808;DHT22;29438;50.664;10.098;2024-02-15T14:54:16;12.40;86.40
43808;DHT22;29438;50.664;10.098;2024-02-15T14:56:44;12.20;86.40
43808;DHT22;29438;50.664;10.098;2024-02-15T14:59:11;12.00;86.90
43808;DHT22;29438;50.664;10.098;2024-02-15T15:01:37;11.90;87.30
43808;DHT22;29438;50.664;10.098;2024-02-15T15:04:03;11.90;87.50
43808;DHT22;29438;50.664;10.098;2024-02-15T15:06:31;11.80;87.70
43808;DHT22;29438;50.664;10.098;2024-02-15T15:09:15;11.70;87.90
43808;DHT22;29438;50.664;10.098;2024-02-15T15:11:59;11.60;88.30
43808;DHT22;29438;50.664;10.098;2024-02-15T15:14:43;11.50;88.60
43808;DHT22;29438;50.664;10.098;2024-02-15T15:17:10;11.40;88.90
43808;DHT22;29438;50.664;10.098;2024-02-15T15:19:38;11.30;89.00
43808;DHT22;29438;50.664;10.098;2024-02-15T15:22:04;11.30;89.10
43808;DHT22;29438;50.664;10.098;2024-02-15T15:24:30;11.20;89.40
43808;DHT22;29438;50.664;10.098;2024-02-15T15:26:58;11.00;89.60
43808;DHT22;29438;50.664;10.098;2024-02-15T15:29:23;11.00;89.80
43808;DHT22;29438;50.664;10.098;2024-02-15T15:31:49;10.90;90.00
43808;DHT22;29438;50.664;10.098;2024-02-15T15:34:14;10.90;90.20
43808;DHT22;29438;50.664;10.098;2024-02-15T15:36:41;10.80;90.20
43808;DHT22;29438;50.664;10.098;2024-02-15T15:39:07;10.80;90.30
43808;DHT22;29438;50.664;10.098;2024-02-15T15:41:36;10.70;90.50